sensor_id;sensor_type;location;lat;lon;timestamp;P1;durP1;ratioP1;P2;durP2;ratioP2
10041;SDS011;5061;49.068;12.058;2023-07-30T00:02:57;2.63;;;2.03;;
10041;SDS011;5061;49.068;12.058;2023-07-30T00:06:17;2.03;;;1.83;;
10041;SDS011;5061;49.068;12.058;2023-07-30T00:09:38;2.30;;;2.10;;
10041;SDS011;5061;49.068;12.058;2023-07-30T00:12:59;1.73;;;1.63;;
10041;SDS011;5061;49.068;12.058;2023-07-30T00:16:19;2.80;;;2.27;;
10041;SDS011;5061;49.068;12.058;2023-07-30T00:19:40;2.33;;;2.13;;
10041;SDS011;5061;49.068;12.058;2023-07-30T00:23:01;2.50;;;2.10;;
10041;SDS011;5061;49.068;12.058;2023-07-30T00:26:21;3.93;;;2.43;;
10041;SDS011;5061;49.068;12.058;2023-07-30T00:29:43;2.40;;;2.20;;
10041;SDS011;5061;49.068;12.058;2023-07-30T00:33:04;2.23;;;2.03;;
10041;SDS011;5061;49.068;12.058;2023-07-30T00:36:25;2.03;;;1.80;;
10041;SDS011;5061;49.068;12.058;2023-07-30T00:39:45;2.20;;;1.83;;
10041;SDS011;5061;49.068;12.058;2023-07-30T00:43:06;2.30;;;2.10;;
10041;SDS011;5061;49.068;12.058;2023-07-30T00:46:27;2.33;;;1.80;;
10041;SDS011;5061;49.068;12.058;2023-07-30T00:49:48;2.70;;;1.70;;
10041;SDS011;5061;49.068;12.058;2023-07-30T00:53:09;1.73;;;1.60;;
10041;SDS011;5061;49.068;12.058;2023-07-30T00:56:33;2.00;;;1.80;;
10041;SDS011;5061;49.068;12.058;2023-07-30T00:59:55;2.43;;;2.23;;
10041;SDS011;5061;49.068;12.058;2023-07-30T01:03:16;5.90;;;2.50;;
10041;SDS011;5061;49.068;12.058;2023-07-30T01:06:38;2.50;;;2.30;;
10041;SDS011;5061;49.068;12.058;2023-07-30T01:09:59;2.60;;;2.40;;
10041;SDS011;5061;49.068;12.058;2023-07-30T01:13:20;4.20;;;2.43;;
10041;SDS011;5061;49.068;12.058;2023-07-30T01:16:41;2.30;;;2.10;;
10041;SDS011;5061;49.068;12.058;2023-07-30T01:20:02;3.43;;;2.13;;
10041;SDS011;5061;49.068;12.058;2023-07-30T01:23:25;2.30;;;2.10;;
10041;SDS011;5061;49.068;12.058;2023-07-30T01:26:56;2.43;;;2.10;;
10041;SDS011;5061;49.068;12.058;2023-07-30T01:30:22;2.20;;;2.00;;
10041;SDS011;5061;49.068;12.058;2023-07-30T01:33:52;2.23;;;2.03;;
10041;SDS011;5061;49.068;12.058;2023-07-30T01:37:15;2.53;;;2.10;;
10041;SDS011;5061;49.068;12.058;2023-07-30T01:40:37;3.30;;;1.90;;
10041;SDS011;5061;49.068;12.058;2023-07-30T01:43:57;2.33;;;2.13;;
10041;SDS011;5061;49.068;12.058;2023-07-30T01:47:18;2.10;;;1.90;;
10041;SDS011;5061;49.068;12.058;2023-07-30T01:50:39;1.97;;;1.83;;
10041;SDS011;5061;49.068;12.058;2023-07-30T01:53:59;2.03;;;1.80;;
10041;SDS011;5061;49.068;12.058;2023-07-30T01:57:20;1.97;;;1.77;;
10041;SDS011;5061;49.068;12.058;2023-07-30T02:00:40;2.00;;;1.87;;
10041;SDS011;5061;49.068;12.058;2023-07-30T02:04:01;6.60;;;1.90;;
10041;SDS011;5061;49.068;12.058;2023-07-30T02:07:22;2.30;;;2.07;;
10041;SDS011;5061;49.068;12.058;2023-07-30T02:10:42;2.07;;;1.87;;
10041;SDS011;5061;49.068;12.058;2023-07-30T02:14:03;2.30;;;2.10;;
10041;SDS011;5061;49.068;12.058;2023-07-30T02:17:23;2.83;;;2.53;;
10041;SDS011;5061;49.068;12.058;2023-07-30T02:20:44;4.10;;;2.00;;
10041;SDS011;5061;49.068;12.058;2023-07-30T02:24:05;5.20;;;2.00;;
10041;SDS011;5061;49.068;12.058;2023-07-30T02:27:29;2.40;;;1.90;;
10041;SDS011;5061;49.068;12.058;2023-07-30T02:30:50;2.57;;;2.37;;
10041;SDS011;5061;49.068;12.058;2023-07-30T02:34:11;2.10;;;1.90;;
10041;SDS011;5061;49.068;12.058;2023-07-30T02:37:31;3.77;;;2.40;;
10041;SDS011;5061;49.068;12.058;2023-07-30T02:40:52;2.37;;;2.17;;
10041;SDS011;5061;49.068;12.058;2023-07-30T02:44:12;5.00;;;2.70;;
10041;SDS011;5061;49.068;12.058;2023-07-30T02:47:33;4.53;;;1.90;;
10041;SDS011;5061;49.068;12.058;2023-07-30T02:50:54;1.50;;;1.40;;
10041;SDS011;5061;49.068;12.058;2023-07-30T02:54:14;1.50;;;1.40;;
10041;SDS011;5061;49.068;12.058;2023-07-30T02:57:40;1.30;;;1.20;;
10041;SDS011;5061;49.068;12.058;2023-07-30T03:01:07;1.40;;;1.30;;
10041;SDS011;5061;49.068;12.058;2023-07-30T03:04:28;1.70;;;1.60;;
10041;SDS011;5061;49.068;12.058;2023-07-30T03:07:49;1.30;;;1.20;;
10041;SDS011;5061;49.068;12.058;2023-07-30T03:11:09;2.27;;;1.50;;
10041;SDS011;5061;49.068;12.058;2023-07-30T03:14:30;1.50;;;1.20;;
10041;SDS011;5061;49.068;12.058;2023-07-30T03:17:50;1.90;;;1.70;;
10041;SDS011;5061;49.068;12.058;2023-07-30T03:21:11;1.57;;;1.47;;
10041;SDS011;5061;49.068;12.058;2023-07-30T03:24:32;2.33;;;1.70;;
10041;SDS011;5061;49.068;12.058;2023-07-30T03:27:52;1.40;;;1.30;;
10041;SDS011;5061;49.068;12.058;2023-07-30T03:31:13;1.53;;;1.30;;
10041;SDS011;5061;49.068;12.058;2023-07-30T03:34:33;1.30;;;1.20;;
10041;SDS011;5061;49.068;12.058;2023-07-30T03:37:54;1.40;;;1.30;;
10041;SDS011;5061;49.068;12.058;2023-07-30T03:41:15;1.10;;;1.00;;
10041;SDS011;5061;49.068;12.058;2023-07-30T03:44:35;1.30;;;1.20;;
10041;SDS011;5061;49.068;12.058;2023-07-30T03:47:56;1.50;;;1.40;;
10041;SDS011;5061;49.068;12.058;2023-07-30T03:51:16;1.70;;;1.60;;
10041;SDS011;5061;49.068;12.058;2023-07-30T03:54:37;1.20;;;1.10;;
10041;SDS011;5061;49.068;12.058;2023-07-30T03:57:58;1.27;;;1.17;;
10041;SDS011;5061;49.068;12.058;2023-07-30T04:01:18;1.20;;;1.10;;
10041;SDS011;5061;49.068;12.058;2023-07-30T04:04:39;1.17;;;1.07;;
10041;SDS011;5061;49.068;12.058;2023-07-30T04:07:59;1.00;;;0.90;;
10041;SDS011;5061;49.068;12.058;2023-07-30T04:11:20;1.10;;;1.00;;
10041;SDS011;5061;49.068;12.058;2023-07-30T04:14:41;1.20;;;1.00;;
10041;SDS011;5061;49.068;12.058;2023-07-30T04:18:01;1.10;;;1.00;;
10041;SDS011;5061;49.068;12.058;2023-07-30T04:21:22;1.20;;;1.10;;
10041;SDS011;5061;49.068;12.058;2023-07-30T04:24:42;1.20;;;1.10;;
10041;SDS011;5061;49.068;12.058;2023-07-30T04:28:03;1.10;;;1.00;;
10041;SDS011;5061;49.068;12.058;2023-07-30T04:31:24;1.00;;;0.90;;
10041;SDS011;5061;49.068;12.058;2023-07-30T04:34:44;1.10;;;1.00;;
10041;SDS011;5061;49.068;12.058;2023-07-30T04:38:05;1.10;;;0.97;;
10041;SDS011;5061;49.068;12.058;2023-07-30T04:41:25;3.03;;;1.20;;
10041;SDS011;5061;49.068;12.058;2023-07-30T04:48:46;1.20;;;1.10;;
10041;SDS011;5061;49.068;12.058;2023-07-30T04:52:08;1.40;;;1.30;;
10041;SDS011;5061;49.068;12.058;2023-07-30T04:55:31;2.10;;;1.13;;
10041;SDS011;5061;49.068;12.058;2023-07-30T04:58:52;1.00;;;0.90;;
10041;SDS011;5061;49.068;12.058;2023-07-30T05:02:14;2.20;;;1.00;;
10041;SDS011;5061;49.068;12.058;2023-07-30T05:05:34;1.23;;;1.10;;
10041;SDS011;5061;49.068;12.058;2023-07-30T05:08:55;1.40;;;1.30;;
10041;SDS011;5061;49.068;12.058;2023-07-30T05:12:15;1.40;;;1.30;;
10041;SDS011;5061;49.068;12.058;2023-07-30T05:15:36;1.33;;;1.23;;
10041;SDS011;5061;49.068;12.058;2023-07-30T05:18:57;1.20;;;1.10;;
10041;SDS011;5061;49.068;12.058;2023-07-30T05:22:17;6.63;;;1.60;;
10041;SDS011;5061;49.068;12.058;2023-07-30T05:25:38;1.50;;;1.40;;
10041;SDS011;5061;49.068;12.058;2023-07-30T05:28:58;1.87;;;1.53;;
10041;SDS011;5061;49.068;12.058;2023-07-30T05:32:19;1.40;;;1.30;;
10041;SDS011;5061;49.068;12.058;2023-07-30T05:35:40;1.30;;;1.20;;
10041;SDS011;5061;49.068;12.058;2023-07-30T05:39:00;1.50;;;1.40;;
10041;SDS011;5061;49.068;12.058;2023-07-30T05:42:21;1.40;;;1.30;;
10041;SDS011;5061;49.068;12.058;2023-07-30T05:45:42;1.60;;;1.50;;
10041;SDS011;5061;49.068;12.058;2023-07-30T05:49:03;2.27;;;1.63;;
10041;SDS011;5061;49.068;12.058;2023-07-30T05:52:23;1.50;;;1.40;;
10041;SDS011;5061;49.068;12.058;2023-07-30T05:55:44;1.40;;;1.30;;
10041;SDS011;5061;49.068;12.058;2023-07-30T05:59:05;1.90;;;1.80;;
10041;SDS011;5061;49.068;12.058;2023-07-30T06:02:26;1.90;;;1.60;;
10041;SDS011;5061;49.068;12.058;2023-07-30T06:05:46;1.70;;;1.60;;
10041;SDS011;5061;49.068;12.058;2023-07-30T06:09:07;2.20;;;1.60;;
10041;SDS011;5061;49.068;12.058;2023-07-30T06:12:28;1.50;;;1.40;;
10041;SDS011;5061;49.068;12.058;2023-07-30T06:15:48;2.00;;;1.80;;
10041;SDS011;5061;49.068;12.058;2023-07-30T06:19:09;1.93;;;1.70;;
10041;SDS011;5061;49.068;12.058;2023-07-30T06:22:30;2.80;;;1.70;;
10041;SDS011;5061;49.068;12.058;2023-07-30T06:25:50;1.40;;;1.30;;
10041;SDS011;5061;49.068;12.058;2023-07-30T06:29:11;1.73;;;1.40;;
10041;SDS011;5061;49.068;12.058;2023-07-30T06:32:31;1.63;;;1.53;;
10041;SDS011;5061;49.068;12.058;2023-07-30T06:35:52;2.43;;;1.60;;
10041;SDS011;5061;49.068;12.058;2023-07-30T06:39:16;1.60;;;1.50;;
10041;SDS011;5061;49.068;12.058;2023-07-30T06:42:36;2.00;;;1.50;;
10041;SDS011;5061;49.068;12.058;2023-07-30T06:45:57;1.60;;;1.50;;
10041;SDS011;5061;49.068;12.058;2023-07-30T06:49:23;1.57;;;1.47;;
10041;SDS011;5061;49.068;12.058;2023-07-30T06:52:44;3.40;;;1.60;;
10041;SDS011;5061;49.068;12.058;2023-07-30T06:56:04;2.50;;;1.63;;
10041;SDS011;5061;49.068;12.058;2023-07-30T06:59:25;1.60;;;1.50;;
10041;SDS011;5061;49.068;12.058;2023-07-30T07:02:45;1.53;;;1.43;;
10041;SDS011;5061;49.068;12.058;2023-07-30T07:06:06;1.70;;;1.37;;
10041;SDS011;5061;49.068;12.058;2023-07-30T07:09:27;1.40;;;1.30;;
10041;SDS011;5061;49.068;12.058;2023-07-30T07:12:47;1.83;;;1.50;;
10041;SDS011;5061;49.068;12.058;2023-07-30T07:16:08;1.77;;;1.50;;
10041;SDS011;5061;49.068;12.058;2023-07-30T07:19:29;1.57;;;1.47;;
10041;SDS011;5061;49.068;12.058;2023-07-30T07:22:49;2.00;;;1.80;;
10041;SDS011;5061;49.068;12.058;2023-07-30T07:26:10;2.30;;;1.43;;
10041;SDS011;5061;49.068;12.058;2023-07-30T07:29:30;1.43;;;1.23;;
10041;SDS011;5061;49.068;12.058;2023-07-30T07:32:52;1.70;;;1.60;;
10041;SDS011;5061;49.068;12.058;2023-07-30T07:36:15;2.63;;;1.70;;
10041;SDS011;5061;49.068;12.058;2023-07-30T07:39:36;2.13;;;1.63;;
10041;SDS011;5061;49.068;12.058;2023-07-30T07:42:56;1.83;;;1.60;;
10041;SDS011;5061;49.068;12.058;2023-07-30T07:46:17;1.57;;;1.47;;
10041;SDS011;5061;49.068;12.058;2023-07-30T07:49:37;2.43;;;1.67;;
10041;SDS011;5061;49.068;12.058;2023-07-30T07:52:58;3.33;;;1.60;;
10041;SDS011;5061;49.068;12.058;2023-07-30T07:56:19;2.10;;;1.90;;
10041;SDS011;5061;49.068;12.058;2023-07-30T07:59:39;2.07;;;1.40;;
10041;SDS011;5061;49.068;12.058;2023-07-30T08:03:01;1.40;;;1.30;;
10041;SDS011;5061;49.068;12.058;2023-07-30T08:06:22;7.20;;;1.80;;
10041;SDS011;5061;49.068;12.058;2023-07-30T08:09:42;1.50;;;1.40;;
10041;SDS011;5061;49.068;12.058;2023-07-30T08:13:03;2.00;;;1.80;;
10041;SDS011;5061;49.068;12.058;2023-07-30T08:16:23;1.60;;;1.50;;
10041;SDS011;5061;49.068;12.058;2023-07-30T08:19:45;3.17;;;1.47;;
10041;SDS011;5061;49.068;12.058;2023-07-30T08:23:05;1.60;;;1.50;;
10041;SDS011;5061;49.068;12.058;2023-07-30T08:26:26;1.67;;;1.57;;
10041;SDS011;5061;49.068;12.058;2023-07-30T08:29:47;2.87;;;2.10;;
10041;SDS011;5061;49.068;12.058;2023-07-30T08:33:07;2.07;;;1.70;;
10041;SDS011;5061;49.068;12.058;2023-07-30T08:36:28;1.70;;;1.60;;
10041;SDS011;5061;49.068;12.058;2023-07-30T08:39:48;1.77;;;1.67;;
10041;SDS011;5061;49.068;12.058;2023-07-30T08:43:09;1.70;;;1.60;;
10041;SDS011;5061;49.068;12.058;2023-07-30T08:46:29;1.90;;;1.63;;
10041;SDS011;5061;49.068;12.058;2023-07-30T08:49:50;7.23;;;1.50;;
10041;SDS011;5061;49.068;12.058;2023-07-30T08:53:11;3.00;;;2.03;;
10041;SDS011;5061;49.068;12.058;2023-07-30T08:56:33;1.70;;;1.60;;
10041;SDS011;5061;49.068;12.058;2023-07-30T09:00:00;1.47;;;1.37;;
10041;SDS011;5061;49.068;12.058;2023-07-30T09:03:23;2.33;;;1.57;;
10041;SDS011;5061;49.068;12.058;2023-07-30T09:06:50;1.57;;;1.43;;
10041;SDS011;5061;49.068;12.058;2023-07-30T09:10:10;2.70;;;1.50;;
10041;SDS011;5061;49.068;12.058;2023-07-30T09:13:36;1.93;;;1.77;;
10041;SDS011;5061;49.068;12.058;2023-07-30T09:17:00;1.53;;;1.43;;
10041;SDS011;5061;49.068;12.058;2023-07-30T09:20:24;1.33;;;1.23;;
10041;SDS011;5061;49.068;12.058;2023-07-30T09:23:50;2.30;;;1.73;;
10041;SDS011;5061;49.068;12.058;2023-07-30T09:27:10;3.30;;;1.50;;
10041;SDS011;5061;49.068;12.058;2023-07-30T09:30:33;1.43;;;1.20;;
10041;SDS011;5061;49.068;12.058;2023-07-30T09:33:57;2.03;;;1.67;;
10041;SDS011;5061;49.068;12.058;2023-07-30T09:37:18;2.30;;;1.57;;
10041;SDS011;5061;49.068;12.058;2023-07-30T09:40:38;1.50;;;1.40;;
10041;SDS011;5061;49.068;12.058;2023-07-30T09:44:04;1.30;;;1.20;;
10041;SDS011;5061;49.068;12.058;2023-07-30T09:47:26;1.67;;;1.40;;
10041;SDS011;5061;49.068;12.058;2023-07-30T09:50:47;1.50;;;1.40;;
10041;SDS011;5061;49.068;12.058;2023-07-30T09:54:16;1.83;;;1.60;;
10041;SDS011;5061;49.068;12.058;2023-07-30T09:57:38;1.50;;;1.40;;
10041;SDS011;5061;49.068;12.058;2023-07-30T10:00:59;2.93;;;1.57;;
10041;SDS011;5061;49.068;12.058;2023-07-30T10:04:21;1.50;;;1.40;;
10041;SDS011;5061;49.068;12.058;2023-07-30T10:07:48;2.07;;;1.63;;
10041;SDS011;5061;49.068;12.058;2023-07-30T10:11:39;1.77;;;1.67;;
10041;SDS011;5061;49.068;12.058;2023-07-30T10:15:19;1.93;;;1.50;;
10041;SDS011;5061;49.068;12.058;2023-07-30T10:18:42;1.53;;;1.43;;
10041;SDS011;5061;49.068;12.058;2023-07-30T10:22:22;2.60;;;1.63;;
10041;SDS011;5061;49.068;12.058;2023-07-30T10:25:53;1.50;;;1.30;;
10041;SDS011;5061;49.068;12.058;2023-07-30T10:29:20;1.53;;;1.43;;
10041;SDS011;5061;49.068;12.058;2023-07-30T10:36:02;1.30;;;1.20;;
10041;SDS011;5061;49.068;12.058;2023-07-30T10:39:26;1.50;;;1.40;;
10041;SDS011;5061;49.068;12.058;2023-07-30T10:42:48;2.23;;;1.53;;
10041;SDS011;5061;49.068;12.058;2023-07-30T10:46:10;1.70;;;1.60;;
10041;SDS011;5061;49.068;12.058;2023-07-30T10:49:37;1.40;;;1.30;;
10041;SDS011;5061;49.068;12.058;2023-07-30T10:52:58;1.50;;;1.40;;
10041;SDS011;5061;49.068;12.058;2023-07-30T10:56:21;1.87;;;1.77;;
10041;SDS011;5061;49.068;12.058;2023-07-30T10:59:44;2.10;;;1.30;;
10041;SDS011;5061;49.068;12.058;2023-07-30T11:03:05;1.50;;;1.40;;
10041;SDS011;5061;49.068;12.058;2023-07-30T11:06:26;1.70;;;1.60;;
10041;SDS011;5061;49.068;12.058;2023-07-30T11:10:00;3.10;;;1.50;;
10041;SDS011;5061;49.068;12.058;2023-07-30T11:13:23;2.07;;;1.70;;
10041;SDS011;5061;49.068;12.058;2023-07-30T11:16:48;1.60;;;1.50;;
10041;SDS011;5061;49.068;12.058;2023-07-30T11:20:23;1.57;;;1.47;;
10041;SDS011;5061;49.068;12.058;2023-07-30T11:23:46;1.67;;;1.50;;
10041;SDS011;5061;49.068;12.058;2023-07-30T11:27:07;1.60;;;1.50;;
10041;SDS011;5061;49.068;12.058;2023-07-30T11:30:28;1.60;;;1.37;;
10041;SDS011;5061;49.068;12.058;2023-07-30T11:33:50;1.43;;;1.30;;
10041;SDS011;5061;49.068;12.058;2023-07-30T11:37:12;1.30;;;1.20;;
10041;SDS011;5061;49.068;12.058;2023-07-30T11:40:33;1.60;;;1.50;;
10041;SDS011;5061;49.068;12.058;2023-07-30T11:43:54;1.50;;;1.40;;
10041;SDS011;5061;49.068;12.058;2023-07-30T11:47:20;1.50;;;1.40;;
10041;SDS011;5061;49.068;12.058;2023-07-30T11:50:49;2.70;;;1.40;;
10041;SDS011;5061;49.068;12.058;2023-07-30T11:54:18;2.00;;;1.30;;
10041;SDS011;5061;49.068;12.058;2023-07-30T11:57:45;2.50;;;1.30;;
10041;SDS011;5061;49.068;12.058;2023-07-30T12:01:05;1.97;;;1.30;;
10041;SDS011;5061;49.068;12.058;2023-07-30T12:04:30;1.53;;;1.43;;
10041;SDS011;5061;49.068;12.058;2023-07-30T12:08:04;1.33;;;1.10;;
10041;SDS011;5061;49.068;12.058;2023-07-30T12:11:27;1.83;;;1.00;;
10041;SDS011;5061;49.068;12.058;2023-07-30T12:18:08;1.23;;;1.13;;
10041;SDS011;5061;49.068;12.058;2023-07-30T12:21:28;1.20;;;1.10;;
10041;SDS011;5061;49.068;12.058;2023-07-30T12:24:49;2.17;;;1.00;;
10041;SDS011;5061;49.068;12.058;2023-07-30T12:28:09;1.30;;;1.20;;
10041;SDS011;5061;49.068;12.058;2023-07-30T12:31:30;1.30;;;1.20;;
10041;SDS011;5061;49.068;12.058;2023-07-30T12:34:51;1.43;;;1.33;;
10041;SDS011;5061;49.068;12.058;2023-07-30T12:38:11;1.87;;;1.67;;
10041;SDS011;5061;49.068;12.058;2023-07-30T12:41:32;1.93;;;1.30;;
10041;SDS011;5061;49.068;12.058;2023-07-30T12:44:52;1.20;;;1.10;;
10041;SDS011;5061;49.068;12.058;2023-07-30T12:48:13;1.30;;;1.20;;
10041;SDS011;5061;49.068;12.058;2023-07-30T12:51:34;1.37;;;1.27;;
10041;SDS011;5061;49.068;12.058;2023-07-30T12:54:55;1.87;;;1.50;;
10041;SDS011;5061;49.068;12.058;2023-07-30T12:58:15;1.63;;;1.53;;
10041;SDS011;5061;49.068;12.058;2023-07-30T13:01:36;1.27;;;1.17;;
10041;SDS011;5061;49.068;12.058;2023-07-30T13:04:56;1.50;;;1.40;;
10041;SDS011;5061;49.068;12.058;2023-07-30T13:08:17;1.70;;;1.60;;
10041;SDS011;5061;49.068;12.058;2023-07-30T13:11:38;2.93;;;1.87;;
10041;SDS011;5061;49.068;12.058;2023-07-30T13:14:59;2.70;;;1.40;;
10041;SDS011;5061;49.068;12.058;2023-07-30T13:18:19;1.60;;;1.50;;
10041;SDS011;5061;49.068;12.058;2023-07-30T13:21:40;1.57;;;1.47;;
10041;SDS011;5061;49.068;12.058;2023-07-30T13:25:01;1.87;;;1.50;;
10041;SDS011;5061;49.068;12.058;2023-07-30T13:28:21;1.97;;;1.77;;
10041;SDS011;5061;49.068;12.058;2023-07-30T13:31:42;1.83;;;1.63;;
10041;SDS011;5061;49.068;12.058;2023-07-30T13:35:03;3.40;;;2.03;;
10041;SDS011;5061;49.068;12.058;2023-07-30T13:38:23;2.80;;;1.40;;
10041;SDS011;5061;49.068;12.058;2023-07-30T13:41:46;1.23;;;1.13;;
10041;SDS011;5061;49.068;12.058;2023-07-30T13:45:07;1.70;;;1.60;;
10041;SDS011;5061;49.068;12.058;2023-07-30T13:48:28;1.57;;;1.33;;
10041;SDS011;5061;49.068;12.058;2023-07-30T13:51:48;1.60;;;1.50;;
10041;SDS011;5061;49.068;12.058;2023-07-30T13:55:09;1.80;;;1.70;;
10041;SDS011;5061;49.068;12.058;2023-07-30T13:58:30;1.70;;;1.60;;
10041;SDS011;5061;49.068;12.058;2023-07-30T14:01:50;1.70;;;1.60;;
10041;SDS011;5061;49.068;12.058;2023-07-30T14:05:11;1.77;;;1.50;;
10041;SDS011;5061;49.068;12.058;2023-07-30T14:08:32;1.50;;;1.40;;
10041;SDS011;5061;49.068;12.058;2023-07-30T14:11:52;1.47;;;1.37;;
10041;SDS011;5061;49.068;12.058;2023-07-30T14:15:13;1.70;;;1.50;;
10041;SDS011;5061;49.068;12.058;2023-07-30T14:18:34;2.67;;;1.80;;
10041;SDS011;5061;49.068;12.058;2023-07-30T14:21:55;3.17;;;1.77;;
10041;SDS011;5061;49.068;12.058;2023-07-30T14:25:16;2.93;;;1.73;;
10041;SDS011;5061;49.068;12.058;2023-07-30T14:28:37;2.47;;;1.50;;
10041;SDS011;5061;49.068;12.058;2023-07-30T14:31:57;1.77;;;1.67;;
10041;SDS011;5061;49.068;12.058;2023-07-30T14:35:18;1.70;;;1.60;;
10041;SDS011;5061;49.068;12.058;2023-07-30T14:38:38;2.23;;;2.03;;
10041;SDS011;5061;49.068;12.058;2023-07-30T14:41:59;2.87;;;2.33;;
10041;SDS011;5061;49.068;12.058;2023-07-30T14:45:20;1.87;;;1.70;;
10041;SDS011;5061;49.068;12.058;2023-07-30T14:48:41;2.43;;;1.60;;
10041;SDS011;5061;49.068;12.058;2023-07-30T14:52:02;2.57;;;1.70;;
10041;SDS011;5061;49.068;12.058;2023-07-30T14:55:23;2.10;;;1.90;;
10041;SDS011;5061;49.068;12.058;2023-07-30T14:58:47;2.00;;;1.63;;
10041;SDS011;5061;49.068;12.058;2023-07-30T15:02:16;1.50;;;1.40;;
10041;SDS011;5061;49.068;12.058;2023-07-30T15:05:39;1.70;;;1.60;;
10041;SDS011;5061;49.068;12.058;2023-07-30T15:09:00;1.40;;;1.30;;
10041;SDS011;5061;49.068;12.058;2023-07-30T15:12:21;2.20;;;1.90;;
10041;SDS011;5061;49.068;12.058;2023-07-30T15:15:41;2.23;;;1.70;;
10041;SDS011;5061;49.068;12.058;2023-07-30T15:19:03;2.10;;;1.70;;
10041;SDS011;5061;49.068;12.058;2023-07-30T15:22:24;2.80;;;1.90;;
10041;SDS011;5061;49.068;12.058;2023-07-30T15:25:44;1.60;;;1.50;;
10041;SDS011;5061;49.068;12.058;2023-07-30T15:29:05;1.67;;;1.57;;
10041;SDS011;5061;49.068;12.058;2023-07-30T15:32:27;3.70;;;2.10;;
10041;SDS011;5061;49.068;12.058;2023-07-30T15:35:49;2.67;;;1.97;;
10041;SDS011;5061;49.068;12.058;2023-07-30T15:39:10;1.60;;;1.50;;
10041;SDS011;5061;49.068;12.058;2023-07-30T15:42:30;1.80;;;1.50;;
10041;SDS011;5061;49.068;12.058;2023-07-30T15:45:51;1.67;;;1.57;;
10041;SDS011;5061;49.068;12.058;2023-07-30T15:49:13;2.10;;;1.90;;
10041;SDS011;5061;49.068;12.058;2023-07-30T15:52:34;3.00;;;2.00;;
10041;SDS011;5061;49.068;12.058;2023-07-30T15:55:54;1.80;;;1.70;;
10041;SDS011;5061;49.068;12.058;2023-07-30T15:59:19;1.60;;;1.50;;
10041;SDS011;5061;49.068;12.058;2023-07-30T16:02:39;1.53;;;1.43;;
10041;SDS011;5061;49.068;12.058;2023-07-30T16:06:01;1.80;;;1.33;;
10041;SDS011;5061;49.068;12.058;2023-07-30T16:09:23;1.97;;;1.80;;
10041;SDS011;5061;49.068;12.058;2023-07-30T16:12:43;2.33;;;1.67;;
10041;SDS011;5061;49.068;12.058;2023-07-30T16:16:10;1.50;;;1.40;;
10041;SDS011;5061;49.068;12.058;2023-07-30T16:19:32;2.50;;;1.63;;
10041;SDS011;5061;49.068;12.058;2023-07-30T16:22:52;1.30;;;1.20;;
10041;SDS011;5061;49.068;12.058;2023-07-30T16:26:14;1.50;;;1.40;;
10041;SDS011;5061;49.068;12.058;2023-07-30T16:29:34;13.23;;;1.80;;
10041;SDS011;5061;49.068;12.058;2023-07-30T16:32:55;1.47;;;1.37;;
10041;SDS011;5061;49.068;12.058;2023-07-30T16:36:15;2.23;;;1.37;;
10041;SDS011;5061;49.068;12.058;2023-07-30T16:39:36;1.53;;;1.43;;
10041;SDS011;5061;49.068;12.058;2023-07-30T16:42:57;1.63;;;1.33;;
10041;SDS011;5061;49.068;12.058;2023-07-30T16:46:17;1.43;;;1.30;;
10041;SDS011;5061;49.068;12.058;2023-07-30T16:49:38;1.43;;;1.20;;
10041;SDS011;5061;49.068;12.058;2023-07-30T16:52:59;1.83;;;1.50;;
10041;SDS011;5061;49.068;12.058;2023-07-30T16:56:19;1.43;;;1.33;;
10041;SDS011;5061;49.068;12.058;2023-07-30T16:59:40;1.23;;;1.10;;
10041;SDS011;5061;49.068;12.058;2023-07-30T17:03:01;2.43;;;1.60;;
10041;SDS011;5061;49.068;12.058;2023-07-30T17:06:25;2.60;;;1.20;;
10041;SDS011;5061;49.068;12.058;2023-07-30T17:09:45;2.50;;;1.77;;
10041;SDS011;5061;49.068;12.058;2023-07-30T17:13:06;2.27;;;1.57;;
10041;SDS011;5061;49.068;12.058;2023-07-30T17:16:26;1.50;;;1.10;;
10041;SDS011;5061;49.068;12.058;2023-07-30T17:19:48;1.57;;;1.30;;
10041;SDS011;5061;49.068;12.058;2023-07-30T17:23:10;1.57;;;1.47;;
10041;SDS011;5061;49.068;12.058;2023-07-30T17:26:31;1.70;;;1.20;;
10041;SDS011;5061;49.068;12.058;2023-07-30T17:29:52;2.13;;;1.53;;
10041;SDS011;5061;49.068;12.058;2023-07-30T17:33:15;5.40;;;1.53;;
10041;SDS011;5061;49.068;12.058;2023-07-30T17:36:36;1.97;;;1.47;;
10041;SDS011;5061;49.068;12.058;2023-07-30T17:39:56;1.97;;;1.67;;
10041;SDS011;5061;49.068;12.058;2023-07-30T17:43:17;1.70;;;1.30;;
10041;SDS011;5061;49.068;12.058;2023-07-30T17:46:38;1.77;;;1.30;;
10041;SDS011;5061;49.068;12.058;2023-07-30T17:49:59;1.50;;;1.40;;
10041;SDS011;5061;49.068;12.058;2023-07-30T17:53:19;1.47;;;1.30;;
10041;SDS011;5061;49.068;12.058;2023-07-30T17:56:46;1.53;;;1.40;;
10041;SDS011;5061;49.068;12.058;2023-07-30T18:00:07;3.73;;;1.50;;
10041;SDS011;5061;49.068;12.058;2023-07-30T18:03:28;1.80;;;1.47;;
10041;SDS011;5061;49.068;12.058;2023-07-30T18:06:50;2.17;;;1.30;;
10041;SDS011;5061;49.068;12.058;2023-07-30T18:10:10;1.83;;;1.27;;
10041;SDS011;5061;49.068;12.058;2023-07-30T18:13:31;1.67;;;1.30;;
10041;SDS011;5061;49.068;12.058;2023-07-30T18:16:55;1.97;;;1.17;;
10041;SDS011;5061;49.068;12.058;2023-07-30T18:20:15;1.30;;;1.20;;
10041;SDS011;5061;49.068;12.058;2023-07-30T18:23:36;1.23;;;1.03;;
10041;SDS011;5061;49.068;12.058;2023-07-30T18:26:58;1.43;;;1.17;;
10041;SDS011;5061;49.068;12.058;2023-07-30T18:30:19;1.00;;;0.90;;
10041;SDS011;5061;49.068;12.058;2023-07-30T18:33:39;1.30;;;1.20;;
10041;SDS011;5061;49.068;12.058;2023-07-30T18:37:00;1.60;;;1.50;;
10041;SDS011;5061;49.068;12.058;2023-07-30T18:40:21;1.20;;;1.10;;
10041;SDS011;5061;49.068;12.058;2023-07-30T18:43:42;1.20;;;1.10;;
10041;SDS011;5061;49.068;12.058;2023-07-30T18:47:03;1.30;;;1.20;;
10041;SDS011;5061;49.068;12.058;2023-07-30T18:50:24;1.50;;;1.40;;
10041;SDS011;5061;49.068;12.058;2023-07-30T18:53:45;1.00;;;0.90;;
10041;SDS011;5061;49.068;12.058;2023-07-30T18:57:06;0.90;;;0.90;;
10041;SDS011;5061;49.068;12.058;2023-07-30T19:00:27;1.27;;;1.17;;
10041;SDS011;5061;49.068;12.058;2023-07-30T19:03:47;1.50;;;1.10;;
10041;SDS011;5061;49.068;12.058;2023-07-30T19:07:09;1.33;;;1.00;;
10041;SDS011;5061;49.068;12.058;2023-07-30T19:10:32;1.30;;;1.20;;
10041;SDS011;5061;49.068;12.058;2023-07-30T19:13:53;1.37;;;1.27;;
10041;SDS011;5061;49.068;12.058;2023-07-30T19:17:14;5.43;;;1.10;;
10041;SDS011;5061;49.068;12.058;2023-07-30T19:20:40;1.40;;;1.10;;
10041;SDS011;5061;49.068;12.058;2023-07-30T19:24:01;2.40;;;1.33;;
10041;SDS011;5061;49.068;12.058;2023-07-30T19:27:25;3.90;;;1.30;;
10041;SDS011;5061;49.068;12.058;2023-07-30T19:30:46;1.40;;;1.10;;
10041;SDS011;5061;49.068;12.058;2023-07-30T19:34:07;1.37;;;1.07;;
10041;SDS011;5061;49.068;12.058;2023-07-30T19:37:34;1.40;;;1.20;;
10041;SDS011;5061;49.068;12.058;2023-07-30T19:40:55;1.43;;;1.00;;
10041;SDS011;5061;49.068;12.058;2023-07-30T19:44:15;2.43;;;1.13;;
10041;SDS011;5061;49.068;12.058;2023-07-30T19:47:36;1.50;;;1.23;;
10041;SDS011;5061;49.068;12.058;2023-07-30T19:50:57;1.60;;;1.20;;
10041;SDS011;5061;49.068;12.058;2023-07-30T19:54:17;1.20;;;0.97;;
10041;SDS011;5061;49.068;12.058;2023-07-30T19:57:38;1.30;;;1.20;;
10041;SDS011;5061;49.068;12.058;2023-07-30T20:00:59;1.73;;;1.20;;
10041;SDS011;5061;49.068;12.058;2023-07-30T20:04:21;1.63;;;1.33;;
10041;SDS011;5061;49.068;12.058;2023-07-30T20:07:43;1.57;;;1.10;;
10041;SDS011;5061;49.068;12.058;2023-07-30T20:11:04;1.50;;;1.30;;
10041;SDS011;5061;49.068;12.058;2023-07-30T20:14:26;1.30;;;1.17;;
10041;SDS011;5061;49.068;12.058;2023-07-30T20:17:47;1.13;;;1.03;;
10041;SDS011;5061;49.068;12.058;2023-07-30T20:21:11;1.30;;;1.10;;
10041;SDS011;5061;49.068;12.058;2023-07-30T20:24:31;2.07;;;1.33;;
10041;SDS011;5061;49.068;12.058;2023-07-30T20:27:52;1.20;;;1.10;;